Time;durP1;ratioP1;P1;durP2;ratioP2;P2;SDS_P1;SDS_P2;PMS_P1;PMS_P2;Temp;Humidity;BMP_temperature;BMP_pressure;BME280_temperature;BME280_humidity;BME280_pressure;Samples;Min_cycle;Max_cycle;Signal;HPM_P1;HPM_P2
2021/04/29 00:00:00;;;;;;;8.93;4.78;;;12.50;99.90;;;;;;5052923;28;20033;-82
2021/04/29 00:02:26;;;;;;;7.22;5.68;;;12.60;99.90;;;;;;5051632;28;20071;-81
2021/04/29 00:04:51;;;;;;;10.32;5.32;;;12.60;99.90;;;;;;5052924;28;20017;-82
2021/04/29 00:07:17;;;;;;;12.70;6.57;;;12.50;99.90;;;;;;5052920;28;20029;-81
2021/04/29 00:09:43;;;;;;;11.65;6.47;;;12.30;99.90;;;;;;5051842;28;20025;-83
2021/04/29 00:12:09;;;;;;;14.00;7.18;;;12.30;99.90;;;;;;5051498;28;20025;-82
2021/04/29 00:14:35;;;;;;;8.85;6.25;;;12.10;99.90;;;;;;5052796;28;20021;-82
2021/04/29 00:17:01;;;;;;;12.10;6.38;;;12.00;99.90;;;;;;5051523;28;20021;-82
2021/04/29 00:19:30;;;;;;;9.43;6.85;;;12.00;99.90;;;;;;5051455;28;20055;-81
2021/04/29 00:21:56;;;;;;;11.10;6.90;;;11.90;99.90;;;;;;5052748;28;20052;-83
2021/04/29 00:24:22;;;;;;;10.93;7.35;;;11.90;99.90;;;;;;5051484;28;20025;-81
2021/04/29 00:26:47;;;;;;;12.00;7.97;;;11.90;99.90;;;;;;5051438;28;20369;-81
2021/04/29 00:29:13;;;;;;;12.98;8.30;;;11.90;99.90;;;;;;5052692;28;20119;-81
2021/04/29 00:31:39;;;;;;;13.68;7.18;;;11.90;99.90;;;;;;5034508;28;20128;-82
2021/04/29 00:34:05;;;;;;;9.10;8.13;;;11.90;99.90;;;;;;5015017;28;20032;-82
2021/04/29 00:36:30;;;;;;;13.32;8.85;;;12.10;99.90;;;;;;5014994;28;20025;-81
2021/04/29 00:38:57;;;;;;;10.75;7.65;;;11.80;99.90;;;;;;5035140;28;20505;-82
2021/04/29 00:41:23;;;;;;;8.75;6.82;;;11.70;99.90;;;;;;5018486;28;20029;-81
2021/04/29 00:43:51;;;;;;;8.15;6.38;;;11.80;99.90;;;;;;5036207;28;20029;-82
2021/04/29 00:46:16;;;;;;;9.90;6.63;;;11.90;99.90;;;;;;5018423;28;20105;-80
2021/04/29 00:48:43;;;;;;;7.25;5.82;;;12.00;99.90;;;;;;5036103;28;20029;-82
2021/04/29 00:51:09;;;;;;;7.20;5.65;;;12.00;99.90;;;;;;5018220;28;20091;-82
2021/04/29 00:53:41;;;;;;;8.82;5.20;;;12.10;99.90;;;;;;5036346;28;20524;-81
2021/04/29 00:56:07;;;;;;;9.88;5.43;;;11.90;99.90;;;;;;5036020;28;20539;-81
2021/04/29 00:58:33;;;;;;;8.20;4.95;;;12.10;99.90;;;;;;5018201;28;20029;-81
2021/04/29 01:01:00;;;;;;;10.60;4.20;;;12.00;99.90;;;;;;5018155;28;20034;-82
2021/04/29 01:03:40;;;;;;;4.93;4.18;;;12.00;99.90;;;;;;5018169;28;20025;-82
2021/04/29 01:06:13;;;;;;;4.00;2.90;;;11.90;99.90;;;;;;5018022;28;20029;-82
2021/04/29 01:09:02;;;;;;;2.65;2.30;;;12.00;99.90;;;;;;5035778;28;20021;-81
2021/04/29 01:11:33;;;;;;;2.90;2.40;;;12.00;99.90;;;;;;5010707;28;20030;-82
2021/04/29 01:14:02;;;;;;;4.32;2.13;;;11.90;99.90;;;;;;5017925;28;20428;-81
2021/04/29 01:16:29;;;;;;;2.63;1.65;;;11.90;99.90;;;;;;5018203;28;20048;-81
2021/04/29 01:18:56;;;;;;;1.90;1.45;;;11.90;99.90;;;;;;5017759;28;20037;-81
2021/04/29 01:21:25;;;;;;;4.03;1.65;;;11.80;99.90;;;;;;5035487;28;20029;-81
2021/04/29 01:24:05;;;;;;;2.80;2.42;;;11.90;99.90;;;;;;5017750;28;20112;-81
2021/04/29 01:26:33;;;;;;;2.38;1.17;;;12.00;99.90;;;;;;5017736;28;20137;-82
2021/04/29 01:29:08;;;;;;;2.63;1.55;;;12.00;99.90;;;;;;5017673;28;20061;-82
2021/04/29 01:31:37;;;;;;;3.90;3.47;;;12.10;99.90;;;;;;5035158;28;20409;-82
2021/04/29 01:34:06;;;;;;;2.35;0.90;;;11.90;99.90;;;;;;5017516;28;20026;-82
2021/04/29 01:36:33;;;;;;;2.42;2.08;;;12.00;99.90;;;;;;5035189;28;20536;-83
2021/04/29 01:39:03;;;;;;;1.23;1.13;;;12.00;99.90;;;;;;5017408;28;20021;-82
2021/04/29 01:41:29;;;;;;;1.73;1.42;;;12.10;99.90;;;;;;5035101;28;20022;-83
2021/04/29 01:43:55;;;;;;;2.22;1.98;;;12.10;99.90;;;;;;5017322;28;20068;-82
2021/04/29 01:46:22;;;;;;;1.20;0.77;;;12.20;99.90;;;;;;5017312;28;20116;-82
2021/04/29 01:48:48;;;;;;;1.25;1.15;;;12.20;99.90;;;;;;5017214;28;20033;-82
2021/04/29 01:51:14;;;;;;;0.82;0.77;;;12.30;99.90;;;;;;5017150;28;20071;-82
2021/04/29 01:53:40;;;;;;;2.03;1.40;;;12.20;99.90;;;;;;5017091;28;20026;-81
2021/04/29 01:56:06;;;;;;;2.70;1.50;;;12.20;99.90;;;;;;5017072;28;20496;-83
2021/04/29 01:58:32;;;;;;;1.20;0.82;;;12.30;99.90;;;;;;5034835;28;20398;-83
2021/04/29 02:01:00;;;;;;;1.25;1.15;;;12.30;99.90;;;;;;5017025;28;20029;-83
2021/04/29 02:03:26;;;;;;;2.58;1.90;;;12.20;99.90;;;;;;5016995;28;20087;-83
2021/04/29 02:05:52;;;;;;;1.30;1.20;;;12.30;99.90;;;;;;5016955;28;20037;-82
2021/04/29 02:08:18;;;;;;;2.03;1.00;;;12.40;99.90;;;;;;5016832;28;20021;-82
2021/04/29 02:10:44;;;;;;;0.90;0.80;;;12.40;99.90;;;;;;5016791;28;20052;-81
2021/04/29 02:13:13;;;;;;;1.63;1.30;;;12.40;99.90;;;;;;5016789;28;20022;-82
2021/04/29 02:15:47;;;;;;;1.42;0.80;;;12.20;99.90;;;;;;5016688;28;20026;-82
2021/04/29 02:18:17;;;;;;;1.00;0.70;;;12.20;99.90;;;;;;5016731;28;20095;-80
2021/04/29 02:20:45;;;;;;;0.82;0.70;;;12.00;99.90;;;;;;5034985;28;20469;-81
2021/04/29 02:23:14;;;;;;;0.98;0.70;;;11.90;99.90;;;;;;5034354;28;20123;-81
2021/04/29 02:25:46;;;;;;;1.02;0.85;;;11.80;99.90;;;;;;5034376;28;20500;-82
2021/04/29 02:28:12;;;;;;;6.32;1.58;;;11.90;99.90;;;;;;5016534;28;20392;-82
2021/04/29 02:30:38;;;;;;;1.67;0.80;;;11.90;99.90;;;;;;5034081;28;20042;-82
2021/04/29 02:33:05;;;;;;;3.85;0.90;;;11.90;99.90;;;;;;5034402;28;20100;-81
2021/04/29 02:35:32;;;;;;;1.73;1.20;;;11.90;99.90;;;;;;5016277;28;20156;-81
2021/04/29 02:37:58;;;;;;;2.03;0.75;;;11.90;99.90;;;;;;5016213;28;20493;-80
2021/04/29 02:40:26;;;;;;;1.00;0.68;;;11.90;99.90;;;;;;5016600;28;20030;-81
2021/04/29 02:42:52;;;;;;;3.38;1.08;;;11.90;99.90;;;;;;5016166;28;20033;-82
2021/04/29 02:45:18;;;;;;;1.67;0.82;;;11.90;99.90;;;;;;5033889;28;20104;-82
2021/04/29 02:47:49;;;;;;;3.55;0.70;;;12.00;99.90;;;;;;5033893;28;20032;-82
2021/04/29 02:50:21;;;;;;;1.55;0.70;;;11.90;99.90;;;;;;5034079;28;20044;-82
2021/04/29 02:52:55;;;;;;;1.52;0.77;;;11.90;99.90;;;;;;5016146;28;20453;-81
2021/04/29 02:55:23;;;;;;;3.33;1.45;;;11.90;99.90;;;;;;5033836;28;20129;-82
2021/04/29 02:57:49;;;;;;;2.53;1.50;;;12.00;99.90;;;;;;5016006;28;20026;-82
2021/04/29 03:00:18;;;;;;;2.60;1.35;;;12.10;99.90;;;;;;5015504;28;20428;-82
2021/04/29 03:02:43;;;;;;;2.83;0.70;;;12.20;99.90;;;;;;5015945;28;20029;-83
2021/04/29 03:05:11;;;;;;;1.35;0.80;;;12.20;99.90;;;;;;5033878;28;20405;-82
2021/04/29 03:07:41;;;;;;;2.25;1.05;;;12.20;99.90;;;;;;5033506;28;20030;-83
2021/04/29 03:10:09;;;;;;;2.17;1.10;;;12.10;99.90;;;;;;5033408;28;20026;-83
2021/04/29 03:12:36;;;;;;;1.35;0.60;;;12.20;99.90;;;;;;5015688;28;20026;-82
2021/04/29 03:15:02;;;;;;;1.40;1.20;;;12.10;99.90;;;;;;5033508;28;20036;-82
2021/04/29 03:17:28;;;;;;;1.67;0.80;;;11.90;99.90;;;;;;5015699;28;20025;-82
2021/04/29 03:19:53;;;;;;;2.10;1.10;;;11.90;99.90;;;;;;5033438;28;20108;-82
2021/04/29 03:22:19;;;;;;;1.20;0.90;;;11.90;99.90;;;;;;5015678;28;20072;-82
2021/04/29 03:24:46;;;;;;;1.10;1.00;;;11.90;99.90;;;;;;5033613;28;20025;-82
2021/04/29 03:27:11;;;;;;;1.90;1.30;;;11.90;99.90;;;;;;5033379;28;20036;-82
2021/04/29 03:29:37;;;;;;;1.27;1.02;;;11.90;99.90;;;;;;5033115;28;20026;-82
2021/04/29 03:32:03;;;;;;;2.00;1.20;;;11.90;99.90;;;;;;5015517;28;20091;-82
2021/04/29 03:34:29;;;;;;;1.50;1.15;;;12.00;99.90;;;;;;5015582;28;20029;-83
2021/04/29 03:36:54;;;;;;;1.88;1.30;;;11.90;99.90;;;;;;5033233;28;20044;-82
2021/04/29 03:39:20;;;;;;;1.48;1.05;;;11.90;99.90;;;;;;5015403;28;20051;-82
2021/04/29 03:41:46;;;;;;;1.42;1.00;;;12.10;99.90;;;;;;5015544;28;20541;-82
2021/04/29 03:44:11;;;;;;;6.68;1.00;;;12.10;99.90;;;;;;5015476;28;20428;-82
2021/04/29 03:46:37;;;;;;;1.38;1.20;;;12.10;99.90;;;;;;5033147;28;20025;-82
2021/04/29 03:49:03;;;;;;;1.20;0.95;;;12.10;99.90;;;;;;5033122;28;20044;-82
2021/04/29 03:51:28;;;;;;;1.48;1.35;;;12.10;99.90;;;;;;5033051;28;20530;-82
2021/04/29 03:53:54;;;;;;;1.38;0.90;;;12.20;99.90;;;;;;5015411;28;20112;-82
2021/04/29 03:56:20;;;;;;;0.75;0.68;;;12.10;99.90;;;;;;5033046;28;20024;-82
2021/04/29 03:58:45;;;;;;;1.17;0.85;;;12.10;99.90;;;;;;5033023;28;20487;-82
2021/04/29 04:01:12;;;;;;;3.60;1.20;;;12.20;99.90;;;;;;5033054;28;20100;-82
2021/04/29 04:03:37;;;;;;;1.45;0.90;;;12.00;99.90;;;;;;5015293;28;20030;-82
2021/04/29 04:06:03;;;;;;;1.42;1.23;;;12.00;99.90;;;;;;5015320;28;20499;-82
2021/04/29 04:08:29;;;;;;;1.63;0.93;;;12.10;99.90;;;;;;5032951;28;20490;-82
2021/04/29 04:10:55;;;;;;;1.83;0.90;;;12.00;99.90;;;;;;5015139;28;20025;-82
2021/04/29 04:13:21;;;;;;;4.70;1.00;;;11.90;99.90;;;;;;5016874;28;20032;-82
2021/04/29 04:15:48;;;;;;;2.55;1.15;;;11.80;99.90;;;;;;5019024;28;20028;-82
2021/04/29 04:18:14;;;;;;;2.80;1.40;;;11.70;99.90;;;;;;5019234;28;20026;-82
2021/04/29 04:20:41;;;;;;;1.75;0.98;;;11.80;99.90;;;;;;5018901;28;20039;-82
2021/04/29 04:23:07;;;;;;;2.40;1.40;;;11.70;99.90;;;;;;5018826;28;20435;-83
2021/04/29 04:25:33;;;;;;;1.75;1.20;;;11.70;99.90;;;;;;5036606;28;20036;-82
2021/04/29 04:27:59;;;;;;;2.42;1.42;;;11.70;99.90;;;;;;5036555;28;20029;-81
2021/04/29 04:30:25;;;;;;;2.25;1.33;;;11.80;99.90;;;;;;5036243;28;20053;-81
2021/04/29 04:32:51;;;;;;;2.15;1.25;;;11.60;99.90;;;;;;5036434;28;20033;-82
2021/04/29 04:35:17;;;;;;;4.95;1.58;;;11.60;99.90;;;;;;5018691;28;20017;-82
2021/04/29 04:37:44;;;;;;;3.75;1.60;;;11.60;99.90;;;;;;5018593;28;20036;-82
2021/04/29 04:40:10;;;;;;;5.00;1.55;;;11.80;99.90;;;;;;5018520;28;20500;-83
2021/04/29 04:42:35;;;;;;;2.03;1.38;;;11.80;99.90;;;;;;5018528;28;20021;-82
2021/04/29 04:45:02;;;;;;;3.22;1.50;;;11.80;99.90;;;;;;5036220;28;20076;-82
2021/04/29 04:47:27;;;;;;;2.60;1.40;;;11.80;99.90;;;;;;5019000;28;20465;-82
2021/04/29 04:49:53;;;;;;;3.13;1.65;;;11.70;99.90;;;;;;5036305;28;20072;-82
2021/04/29 04:52:19;;;;;;;3.17;1.80;;;11.80;99.90;;;;;;5036187;28;20503;-83
2021/04/29 04:54:46;;;;;;;3.95;2.20;;;11.90;99.90;;;;;;5018284;28;20436;-82
2021/04/29 04:57:12;;;;;;;2.53;1.77;;;11.90;99.90;;;;;;5018166;28;20017;-82
2021/04/29 04:59:38;;;;;;;3.90;1.83;;;12.00;99.90;;;;;;5036184;28;20381;-83
2021/04/29 05:02:04;;;;;;;2.45;1.83;;;12.10;99.90;;;;;;5018287;28;20392;-82
2021/04/29 05:04:31;;;;;;;3.10;1.70;;;12.10;99.90;;;;;;5036004;28;20029;-81
2021/04/29 05:06:58;;;;;;;2.30;1.80;;;12.10;99.90;;;;;;5036098;28;20028;-81
2021/04/29 05:09:24;;;;;;;6.10;2.03;;;12.10;99.90;;;;;;5017986;28;20481;-81
2021/04/29 05:11:50;;;;;;;3.00;2.10;;;11.90;99.90;;;;;;5017938;28;20070;-82
2021/04/29 05:14:16;;;;;;;4.70;2.40;;;11.90;99.90;;;;;;5035703;28;20032;-82
2021/04/29 05:16:43;;;;;;;4.20;2.10;;;12.00;99.90;;;;;;5035612;28;20439;-82
2021/04/29 05:19:10;;;;;;;5.88;2.88;;;11.90;99.90;;;;;;5035799;28;20052;-81
2021/04/29 05:21:36;;;;;;;3.10;2.28;;;11.70;99.90;;;;;;5017794;28;20025;-82
2021/04/29 05:24:02;;;;;;;3.13;2.45;;;11.60;99.90;;;;;;5017417;28;20026;-82
2021/04/29 05:26:28;;;;;;;3.15;1.88;;;11.70;99.90;;;;;;5017616;28;20080;-82
2021/04/29 05:28:54;;;;;;;4.18;2.28;;;11.70;99.90;;;;;;5017618;28;20543;-81
2021/04/29 05:31:19;;;;;;;4.03;2.10;;;11.50;99.90;;;;;;5035238;28;20038;-81
2021/04/29 05:33:45;;;;;;;6.00;2.17;;;11.30;99.90;;;;;;5035287;28;20026;-81
2021/04/29 05:36:11;;;;;;;6.70;2.25;;;11.20;99.90;;;;;;5035534;28;20025;-82
2021/04/29 05:38:36;;;;;;;3.88;2.20;;;11.20;99.90;;;;;;5035443;28;20032;-81
2021/04/29 05:41:02;;;;;;;4.40;2.40;;;11.10;99.90;;;;;;5017489;28;20025;-80
2021/04/29 05:43:28;;;;;;;9.25;2.85;;;10.90;99.90;;;;;;5017692;28;20087;-81
2021/04/29 05:45:54;;;;;;;7.35;2.70;;;10.70;99.90;;;;;;5017341;28;20033;-81
2021/04/29 05:48:19;;;;;;;5.25;2.10;;;10.70;99.90;;;;;;5035045;28;20032;-81
2021/04/29 05:50:45;;;;;;;4.20;2.50;;;10.80;99.90;;;;;;5017163;28;20387;-81
2021/04/29 05:53:11;;;;;;;3.47;2.25;;;10.90;99.90;;;;;;5017282;28;20033;-81
2021/04/29 05:55:37;;;;;;;5.13;2.42;;;10.90;99.90;;;;;;5035178;28;20108;-81
2021/04/29 05:58:02;;;;;;;6.75;2.45;;;11.10;99.90;;;;;;5017203;28;20018;-81
2021/04/29 06:00:28;;;;;;;3.55;2.50;;;11.10;99.90;;;;;;5017091;28;20079;-82
2021/04/29 06:02:55;;;;;;;3.95;2.58;;;11.30;99.90;;;;;;5017073;28;20025;-81
2021/04/29 06:05:22;;;;;;;5.63;2.55;;;11.30;99.90;;;;;;5017002;28;20041;-81
2021/04/29 06:07:58;;;;;;;5.40;2.70;;;11.40;99.90;;;;;;5016924;28;20037;-80
2021/04/29 06:10:24;;;;;;;4.75;2.80;;;11.40;99.90;;;;;;5034566;28;20033;-81
2021/04/29 06:12:50;;;;;;;5.80;2.67;;;11.50;99.90;;;;;;5034703;28;20032;-81
2021/04/29 06:15:16;;;;;;;6.47;2.70;;;11.60;99.90;;;;;;5034476;28;20022;-82
2021/04/29 06:17:42;;;;;;;10.82;3.67;;;11.60;99.90;;;;;;5016806;28;20448;-80
2021/04/29 06:20:09;;;;;;;6.22;2.72;;;11.70;99.90;;;;;;5034435;28;20052;-80
2021/04/29 06:22:34;;;;;;;5.88;2.90;;;11.70;99.90;;;;;;5034370;28;20446;-81
2021/04/29 06:25:00;;;;;;;9.60;3.15;;;11.70;99.90;;;;;;5016726;28;20071;-80
2021/04/29 06:27:26;;;;;;;4.90;2.95;;;11.60;99.90;;;;;;5016484;28;20397;-80
2021/04/29 06:29:51;;;;;;;5.88;2.83;;;11.70;99.90;;;;;;5016313;28;20048;-80
2021/04/29 06:32:17;;;;;;;7.05;3.40;;;11.70;99.90;;;;;;5016560;28;20116;-80
2021/04/29 06:34:43;;;;;;;5.50;3.42;;;11.70;99.90;;;;;;5034419;28;20100;-81
2021/04/29 06:37:08;;;;;;;4.65;3.17;;;11.70;99.90;;;;;;5015940;28;20389;-80
2021/04/29 06:39:34;;;;;;;4.45;3.35;;;11.70;99.90;;;;;;5034113;28;20021;-80
2021/04/29 06:42:00;;;;;;;4.82;3.33;;;11.60;99.90;;;;;;5016521;28;20052;-81
2021/04/29 06:44:26;;;;;;;5.05;3.78;;;11.60;99.90;;;;;;5034355;28;20029;-80
2021/04/29 06:46:52;;;;;;;7.07;3.53;;;11.40;99.90;;;;;;5016405;28;20036;-80
2021/04/29 06:49:17;;;;;;;7.40;3.83;;;11.40;99.90;;;;;;5034277;28;20033;-81
2021/04/29 06:51:43;;;;;;;11.02;3.78;;;11.40;99.90;;;;;;5034678;28;20504;-82
2021/04/29 06:54:09;;;;;;;6.47;3.80;;;11.40;99.90;;;;;;5033906;28;20020;-82
2021/04/29 06:56:35;;;;;;;6.35;3.72;;;11.50;99.90;;;;;;5016271;28;20481;-81
2021/04/29 06:59:03;;;;;;;7.70;3.65;;;11.50;99.90;;;;;;5016035;28;20083;-82
2021/04/29 07:01:28;;;;;;;6.88;4.05;;;11.50;99.90;;;;;;5015987;28;20132;-81
2021/04/29 07:03:56;;;;;;;6.88;4.00;;;11.60;99.90;;;;;;5016068;28;20057;-81
2021/04/29 07:06:22;;;;;;;6.30;3.78;;;11.60;99.90;;;;;;5016090;28;20021;-82
2021/04/29 07:08:48;;;;;;;7.15;4.28;;;11.80;99.90;;;;;;5033871;28;20032;-83
2021/04/29 07:11:15;;;;;;;7.05;4.53;;;11.70;99.90;;;;;;5016140;28;20395;-83
2021/04/29 07:13:40;;;;;;;7.90;4.45;;;11.90;99.90;;;;;;5033692;28;20572;-84
2021/04/29 07:16:06;;;;;;;9.85;4.35;;;12.00;99.90;;;;;;5015979;28;20112;-82
2021/04/29 07:18:32;;;;;;;8.15;4.80;;;11.90;99.90;;;;;;5033665;28;20074;-82
2021/04/29 07:20:58;;;;;;;10.35;4.75;;;11.80;99.90;;;;;;5033721;28;20022;-81
2021/04/29 07:23:24;;;;;;;7.10;5.53;;;11.70;99.90;;;;;;5015787;28;20029;-82
2021/04/29 07:25:50;;;;;;;14.77;5.57;;;11.90;99.90;;;;;;5015811;28;20508;-82
2021/04/29 07:28:17;;;;;;;9.63;5.20;;;12.00;99.90;;;;;;5015964;28;20366;-82
2021/04/29 07:30:43;;;;;;;10.38;5.82;;;12.00;99.90;;;;;;5033580;28;20069;-83
2021/04/29 07:33:11;;;;;;;7.57;5.25;;;12.10;99.90;;;;;;5033476;28;20017;-80
2021/04/29 07:35:37;;;;;;;11.60;6.00;;;12.30;99.90;;;;;;5033460;28;20028;-82
2021/04/29 07:38:03;;;;;;;10.13;5.35;;;12.50;99.90;;;;;;5033280;28;20075;-82
2021/04/29 07:40:31;;;;;;;12.32;5.97;;;12.70;99.90;;;;;;5033543;28;20039;-82
2021/04/29 07:42:56;;;;;;;8.68;6.00;;;12.80;99.90;;;;;;5015601;28;20056;-82
2021/04/29 07:45:22;;;;;;;11.07;5.60;;;12.90;99.90;;;;;;5033415;28;20033;-82
2021/04/29 07:47:48;;;;;;;11.55;6.30;;;13.00;99.90;;;;;;5018243;28;20064;-82
2021/04/29 07:50:14;;;;;;;10.45;6.13;;;13.30;99.90;;;;;;5037788;28;20056;-83
2021/04/29 07:52:41;;;;;;;12.05;5.90;;;13.20;99.90;;;;;;5020068;28;20053;-82
2021/04/29 07:55:08;;;;;;;11.70;6.00;;;13.30;99.90;;;;;;5037308;28;20113;-82
2021/04/29 07:57:34;;;;;;;8.75;5.85;;;13.30;99.90;;;;;;5037120;28;20151;-83
2021/04/29 08:00:00;;;;;;;16.10;7.22;;;13.50;99.90;;;;;;5037424;28;20056;-84
2021/04/29 08:02:25;;;;;;;12.90;6.30;;;13.80;99.90;;;;;;5019760;28;20025;-84
2021/04/29 08:04:51;;;;;;;13.35;5.80;;;14.00;99.90;;;;;;5037231;28;20029;-82
2021/04/29 08:07:17;;;;;;;10.25;6.47;;;14.20;99.90;;;;;;5037495;28;20028;-85
2021/04/29 08:09:42;;;;;;;11.35;5.78;;;14.40;99.90;;;;;;5037390;28;20093;-82
2021/04/29 08:12:08;;;;;;;8.02;5.97;;;14.20;99.90;;;;;;5019376;28;20028;-84
2021/04/29 08:14:34;;;;;;;10.90;6.88;;;14.10;99.90;;;;;;5019053;28;20489;-83
2021/04/29 08:16:59;;;;;;;10.68;6.53;;;14.30;99.90;;;;;;5037096;28;20021;-83
2021/04/29 08:19:25;;;;;;;12.80;6.47;;;14.50;99.90;;;;;;5019607;28;20079;-81
2021/04/29 08:21:51;;;;;;;8.65;6.13;;;14.60;99.90;;;;;;5019175;28;20555;-81
2021/04/29 08:24:16;;;;;;;10.40;6.60;;;14.50;99.90;;;;;;5036741;28;20026;-81
2021/04/29 08:26:42;;;;;;;13.65;6.68;;;14.50;99.90;;;;;;5036907;28;20033;-81
2021/04/29 08:29:08;;;;;;;12.48;7.32;;;14.10;99.90;;;;;;5037193;28;20079;-81
2021/04/29 08:31:34;;;;;;;10.55;6.72;;;13.80;99.90;;;;;;5049514;28;20513;-82
2021/04/29 08:34:00;;;;;;;11.55;6.63;;;13.90;99.90;;;;;;5055189;28;20028;-82
2021/04/29 08:36:29;;;;;;;10.52;6.72;;;13.90;99.90;;;;;;5056432;28;20029;-82
2021/04/29 08:38:55;;;;;;;12.82;7.20;;;14.00;99.90;;;;;;5054952;28;20496;-81
2021/04/29 08:41:21;;;;;;;14.82;6.88;;;14.00;99.90;;;;;;5056224;28;20036;-80
2021/04/29 08:43:47;;;;;;;12.40;6.47;;;14.40;99.90;;;;;;5054908;28;20021;-82
2021/04/29 08:46:13;;;;;;;20.20;6.90;;;14.60;99.90;;;;;;5056169;28;20052;-81
2021/04/29 08:48:39;;;;;;;14.02;6.65;;;14.60;99.90;;;;;;5056141;28;20036;-80
2021/04/29 08:51:05;;;;;;;8.98;5.68;;;14.50;99.90;;;;;;5054781;28;20024;-80
2021/04/29 08:53:31;;;;;;;10.65;6.93;;;14.30;99.90;;;;;;5054773;28;20029;-81
2021/04/29 08:55:57;;;;;;;12.15;6.10;;;14.00;99.90;;;;;;5054751;28;20021;-84
2021/04/29 08:58:23;;;;;;;9.68;5.72;;;13.80;99.90;;;;;;5053920;28;20021;-82
2021/04/29 09:01:02;;;;;;;9.32;5.80;;;13.90;99.90;;;;;;5055748;28;20404;-84
2021/04/29 09:03:33;;;;;;;14.40;6.25;;;13.90;99.90;;;;;;5054661;28;20087;-82
2021/04/29 09:06:03;;;;;;;14.60;5.88;;;13.90;99.90;;;;;;5055818;28;20100;-82
2021/04/29 09:08:31;;;;;;;17.00;6.13;;;13.80;99.90;;;;;;5054515;28;20025;-82
2021/04/29 09:11:07;;;;;;;15.75;6.80;;;13.70;99.90;;;;;;5054501;28;20116;-82
2021/04/29 09:13:33;;;;;;;13.65;5.35;;;13.10;99.90;;;;;;5054357;28;20027;-81
2021/04/29 09:16:06;;;;;;;10.27;5.82;;;12.40;99.90;;;;;;5054358;28;20025;-79
2021/04/29 09:18:33;;;;;;;12.85;6.57;;;12.10;99.90;;;;;;5054328;28;20033;-80
2021/04/29 09:21:06;;;;;;;10.95;6.75;;;11.70;99.90;;;;;;5054240;28;20033;-80
2021/04/29 09:23:34;;;;;;;14.50;6.85;;;11.70;99.90;;;;;;5054191;28;20045;-79
2021/04/29 09:26:06;;;;;;;13.13;7.13;;;11.70;99.90;;;;;;5054141;28;20033;-80
2021/04/29 09:28:42;;;;;;;12.88;7.93;;;11.70;99.90;;;;;;5055630;28;20032;-79
2021/04/29 09:31:12;;;;;;;8.95;6.65;;;11.50;99.90;;;;;;5053657;28;20124;-79
2021/04/29 09:33:40;;;;;;;10.88;7.68;;;11.50;99.90;;;;;;5055303;28;20017;-79
2021/04/29 09:36:08;;;;;;;11.80;7.55;;;11.70;99.90;;;;;;5055261;28;20037;-80
2021/04/29 09:38:37;;;;;;;12.10;6.82;;;11.80;99.90;;;;;;5053829;28;20092;-80
2021/04/29 09:41:04;;;;;;;12.60;7.90;;;12.10;99.90;;;;;;5053849;28;20025;-80
2021/04/29 09:43:29;;;;;;;15.40;7.63;;;12.30;99.90;;;;;;5053823;28;20366;-79
2021/04/29 09:46:00;;;;;;;13.30;8.45;;;12.80;99.90;;;;;;5055093;28;20028;-80
2021/04/29 09:48:38;;;;;;;10.32;6.72;;;13.00;99.90;;;;;;5037364;28;20082;-79
2021/04/29 09:51:05;;;;;;;12.90;8.27;;;12.80;99.90;;;;;;5053662;28;20025;-79
2021/04/29 09:53:42;;;;;;;14.93;8.57;;;12.70;99.90;;;;;;5054895;28;20048;-79
2021/04/29 09:56:10;;;;;;;18.75;8.70;;;12.80;99.90;;;;;;5053680;28;20029;-79
2021/04/29 09:58:36;;;;;;;11.82;8.10;;;13.10;99.90;;;;;;5053527;28;20017;-79
2021/04/29 10:01:05;;;;;;;14.25;8.98;;;13.10;99.90;;;;;;5053507;28;20037;-79
2021/04/29 10:03:32;;;;;;;12.82;8.00;;;13.40;99.90;;;;;;5055293;28;20021;-80
2021/04/29 10:05:58;;;;;;;14.82;8.20;;;13.50;99.90;;;;;;5054726;28;20511;-80
2021/04/29 10:08:27;;;;;;;12.38;8.30;;;13.70;99.90;;;;;;5053344;28;20044;-80
2021/04/29 10:10:55;;;;;;;12.85;7.63;;;14.10;99.90;;;;;;5053397;28;20059;-80
2021/04/29 10:13:30;;;;;;;10.55;6.82;;;14.40;99.90;;;;;;5053252;28;20029;-80
2021/04/29 10:15:57;;;;;;;13.23;7.43;;;14.40;99.90;;;;;;5053249;28;20164;-79
2021/04/29 10:18:23;;;;;;;13.43;7.57;;;14.20;99.90;;;;;;5054373;28;20017;-79
2021/04/29 10:20:50;;;;;;;12.10;6.75;;;13.90;99.90;;;;;;5053072;28;20059;-80
2021/04/29 10:23:19;;;;;;;14.27;6.63;;;14.20;99.90;;;;;;5053404;28;20380;-80
2021/04/29 10:25:59;;;;;;;11.25;6.60;;;14.90;99.90;;;;;;5054541;28;20032;-80
2021/04/29 10:28:32;;;;;;;11.80;7.55;;;14.80;99.90;;;;;;5054562;28;20365;-80
2021/04/29 10:30:58;;;;;;;9.48;5.85;;;14.90;99.90;;;;;;5052658;28;20072;-80
2021/04/29 10:33:25;;;;;;;9.48;6.00;;;15.20;99.90;;;;;;5052843;28;20021;-79
2021/04/29 10:36:00;;;;;;;12.45;6.13;;;15.00;99.90;;;;;;5052890;28;20021;-80
2021/04/29 10:38:33;;;;;;;11.27;6.05;;;15.30;99.90;;;;;;5052685;28;20503;-80
2021/04/29 10:41:01;;;;;;;8.77;5.30;;;15.00;99.90;;;;;;5054076;28;20074;-81
2021/04/29 10:43:31;;;;;;;10.63;6.55;;;15.00;99.90;;;;;;5052655;28;20389;-81
2021/04/29 10:45:57;;;;;;;9.43;6.20;;;15.20;99.90;;;;;;5052678;28;20029;-81
2021/04/29 10:48:26;;;;;;;13.35;5.35;;;15.40;99.90;;;;;;5052574;28;20485;-81
2021/04/29 10:50:52;;;;;;;9.63;5.13;;;15.90;99.90;;;;;;5053681;28;20405;-81
2021/04/29 10:53:29;;;;;;;9.95;5.45;;;16.10;99.90;;;;;;5052472;28;20190;-80
2021/04/29 10:56:18;;;;;;;13.05;5.22;;;16.80;99.90;;;;;;5052478;28;20052;-81
2021/04/29 10:58:45;;;;;;;14.43;5.07;;;16.60;99.90;;;;;;5053698;28;20384;-81
2021/04/29 11:01:19;;;;;;;7.00;4.18;;;16.40;99.90;;;;;;5053637;28;20029;-79
2021/04/29 11:03:52;;;;;;;9.00;4.60;;;17.10;99.90;;;;;;5052357;28;20021;-81
2021/04/29 11:06:22;;;;;;;8.43;4.38;;;17.80;99.90;;;;;;5052344;28;20035;-80
2021/04/29 11:08:50;;;;;;;8.57;3.97;;;17.00;99.90;;;;;;5052293;28;20035;-80
2021/04/29 11:11:33;;;;;;;7.35;4.10;;;16.30;99.90;;;;;;5052455;28;20024;-81
2021/04/29 11:14:11;;;;;;;12.93;4.18;;;16.90;99.90;;;;;;5053080;28;20017;-80
2021/04/29 11:16:51;;;;;;;8.15;3.40;;;17.30;99.90;;;;;;5052211;28;20021;-81
2021/04/29 11:19:55;;;;;;;9.32;3.67;;;16.90;99.90;;;;;;5052173;28;20159;-82
2021/04/29 11:22:34;;;;;;;9.13;3.45;;;17.00;99.90;;;;;;5051746;28;20044;-80
2021/04/29 11:25:01;;;;;;;8.80;4.07;;;16.50;99.90;;;;;;5053403;28;20480;-81
2021/04/29 11:27:36;;;;;;;6.05;3.22;;;16.00;99.90;;;;;;5052090;28;20511;-80
2021/04/29 11:30:09;;;;;;;8.60;3.63;;;15.80;99.90;;;;;;5051723;28;20136;-81
2021/04/29 11:32:37;;;;;;;9.02;3.83;;;15.30;99.90;;;;;;5035234;28;20041;-81
2021/04/29 11:35:05;;;;;;;7.25;3.85;;;15.00;99.90;;;;;;5051948;28;20029;-81
2021/04/29 11:37:43;;;;;;;6.40;3.30;;;14.70;99.90;;;;;;5052661;28;20476;-81
2021/04/29 11:40:12;;;;;;;7.93;3.63;;;15.30;99.90;;;;;;5051842;28;20020;-81
2021/04/29 11:42:38;;;;;;;7.28;4.30;;;15.10;99.90;;;;;;5053106;28;20025;-81
2021/04/29 11:45:16;;;;;;;8.82;4.50;;;15.00;99.90;;;;;;5051816;28;20492;-83
2021/04/29 11:48:12;;;;;;;8.20;3.88;;;14.70;99.90;;;;;;5051859;28;20032;-81
2021/04/29 11:50:47;;;;;;;7.05;3.95;;;14.60;99.90;;;;;;5031999;28;20387;-80
2021/04/29 11:53:23;;;;;;;9.10;3.97;;;14.70;99.90;;;;;;5051812;28;20075;-80
2021/04/29 11:55:56;;;;;;;7.70;4.20;;;15.20;99.90;;;;;;5053342;28;20029;-81
2021/04/29 11:58:22;;;;;;;8.32;3.95;;;15.20;99.90;;;;;;5051763;28;20028;-81
2021/04/29 12:00:51;;;;;;;7.28;3.83;;;16.10;99.90;;;;;;5051686;28;20387;-80
2021/04/29 12:03:18;;;;;;;8.02;3.97;;;16.10;99.90;;;;;;5051684;28;20021;-80
2021/04/29 12:05:47;;;;;;;9.10;3.88;;;15.70;99.90;;;;;;5051613;28;20029;-80
2021/04/29 12:08:27;;;;;;;5.53;3.30;;;15.40;99.90;;;;;;5051666;28;20083;-80
2021/04/29 12:10:59;;;;;;;5.60;2.92;;;15.10;99.90;;;;;;5053125;28;20494;-80
2021/04/29 12:13:37;;;;;;;7.28;4.10;;;14.80;99.90;;;;;;5051609;28;20017;-79
2021/04/29 12:16:05;;;;;;;4.93;3.00;;;14.60;99.90;;;;;;5052831;28;20052;-80
2021/04/29 12:18:32;;;;;;;5.43;2.88;;;14.80;99.90;;;;;;5051600;28;20089;-79
2021/04/29 12:20:58;;;;;;;5.15;3.00;;;14.60;99.90;;;;;;5052794;28;20476;-80
2021/04/29 12:23:24;;;;;;;6.38;3.10;;;14.10;99.90;;;;;;5053027;28;20021;-79
2021/04/29 12:26:16;;;;;;;4.03;2.90;;;14.00;99.90;;;;;;5053024;28;20090;-79
2021/04/29 12:28:42;;;;;;;4.55;2.85;;;14.90;99.90;;;;;;5049073;28;20048;-80
2021/04/29 12:31:15;;;;;;;5.13;3.70;;;16.00;99.90;;;;;;5038955;28;20042;-80
2021/04/29 12:33:53;;;;;;;5.53;3.90;;;16.10;99.90;;;;;;5015671;28;20033;-79
2021/04/29 12:36:19;;;;;;;7.30;4.50;;;16.00;99.90;;;;;;5018648;28;20029;-80
2021/04/29 12:38:45;;;;;;;5.88;3.72;;;16.90;99.90;;;;;;5018566;28;20388;-80
2021/04/29 12:41:11;;;;;;;5.25;3.75;;;17.60;99.90;;;;;;5036620;28;20029;-79
2021/04/29 12:43:37;;;;;;;6.75;4.10;;;17.70;99.90;;;;;;5018516;28;20116;-80
2021/04/29 12:46:05;;;;;;;6.40;3.90;;;16.90;99.90;;;;;;5018473;28;20029;-79